sensor_id;sensor_type;location;lat;lon;timestamp;P1;durP1;ratioP1;P2;durP2;ratioP2
67272;SDS011;54190;49.770;9.250;2022-10-31T00:02:24;6.80;;;4.50;;
67272;SDS011;54190;49.770;9.250;2022-10-31T00:04:50;9.33;;;4.70;;
67272;SDS011;54190;49.770;9.250;2022-10-31T00:07:16;7.00;;;5.00;;
67272;SDS011;54190;49.770;9.250;2022-10-31T00:09:42;9.00;;;4.17;;
67272;SDS011;54190;49.770;9.250;2022-10-31T00:12:07;11.70;;;4.83;;
67272;SDS011;54190;49.770;9.250;2022-10-31T00:14:33;11.80;;;4.37;;
67272;SDS011;54190;49.770;9.250;2022-10-31T00:16:59;6.47;;;4.40;;
67272;SDS011;54190;49.770;9.250;2022-10-31T00:19:24;7.33;;;4.10;;
67272;SDS011;54190;49.770;9.250;2022-10-31T00:21:53;12.63;;;4.80;;
67272;SDS011;54190;49.770;9.250;2022-10-31T00:24:18;9.27;;;4.33;;
67272;SDS011;54190;49.770;9.250;2022-10-31T00:26:44;10.37;;;3.53;;
67272;SDS011;54190;49.770;9.250;2022-10-31T00:29:10;6.70;;;3.50;;
67272;SDS011;54190;49.770;9.250;2022-10-31T00:31:38;7.27;;;4.00;;
67272;SDS011;54190;49.770;9.250;2022-10-31T00:34:03;9.00;;;4.17;;
67272;SDS011;54190;49.770;9.250;2022-10-31T00:36:29;11.47;;;4.43;;
67272;SDS011;54190;49.770;9.250;2022-10-31T00:38:55;9.00;;;4.00;;
67272;SDS011;54190;49.770;9.250;2022-10-31T00:41:23;9.90;;;4.20;;
67272;SDS011;54190;49.770;9.250;2022-10-31T00:43:48;12.60;;;4.50;;
67272;SDS011;54190;49.770;9.250;2022-10-31T00:46:14;16.97;;;6.30;;
67272;SDS011;54190;49.770;9.250;2022-10-31T00:48:40;10.90;;;4.73;;
67272;SDS011;54190;49.770;9.250;2022-10-31T00:51:06;4.70;;;3.47;;
67272;SDS011;54190;49.770;9.250;2022-10-31T00:53:32;8.40;;;4.20;;
67272;SDS011;54190;49.770;9.250;2022-10-31T00:55:59;7.93;;;4.07;;
67272;SDS011;54190;49.770;9.250;2022-10-31T00:58:25;7.13;;;4.03;;
67272;SDS011;54190;49.770;9.250;2022-10-31T01:00:51;7.20;;;4.00;;
67272;SDS011;54190;49.770;9.250;2022-10-31T01:03:26;7.13;;;3.83;;
67272;SDS011;54190;49.770;9.250;2022-10-31T01:08:23;8.33;;;3.90;;
67272;SDS011;54190;49.770;9.250;2022-10-31T01:13:51;9.97;;;3.87;;
67272;SDS011;54190;49.770;9.250;2022-10-31T01:16:18;8.00;;;4.40;;
67272;SDS011;54190;49.770;9.250;2022-10-31T01:18:45;9.60;;;4.30;;
67272;SDS011;54190;49.770;9.250;2022-10-31T01:21:12;6.53;;;4.53;;
67272;SDS011;54190;49.770;9.250;2022-10-31T01:23:40;7.03;;;3.77;;
67272;SDS011;54190;49.770;9.250;2022-10-31T01:26:07;9.60;;;4.97;;
67272;SDS011;54190;49.770;9.250;2022-10-31T01:28:34;12.60;;;4.93;;
67272;SDS011;54190;49.770;9.250;2022-10-31T01:31:03;7.63;;;4.33;;
67272;SDS011;54190;49.770;9.250;2022-10-31T01:33:33;7.70;;;4.00;;
67272;SDS011;54190;49.770;9.250;2022-10-31T01:36:00;8.00;;;5.10;;
67272;SDS011;54190;49.770;9.250;2022-10-31T01:38:26;9.00;;;4.60;;
67272;SDS011;54190;49.770;9.250;2022-10-31T01:40:52;11.40;;;4.33;;
67272;SDS011;54190;49.770;9.250;2022-10-31T01:43:18;7.47;;;4.67;;
67272;SDS011;54190;49.770;9.250;2022-10-31T01:45:46;7.60;;;3.83;;
67272;SDS011;54190;49.770;9.250;2022-10-31T01:48:19;11.33;;;5.10;;
67272;SDS011;54190;49.770;9.250;2022-10-31T01:50:48;12.87;;;5.57;;
67272;SDS011;54190;49.770;9.250;2022-10-31T01:53:18;8.00;;;4.40;;
67272;SDS011;54190;49.770;9.250;2022-10-31T01:55:44;14.57;;;4.70;;
67272;SDS011;54190;49.770;9.250;2022-10-31T01:58:14;14.33;;;4.60;;
67272;SDS011;54190;49.770;9.250;2022-10-31T02:00:49;17.40;;;5.10;;
67272;SDS011;54190;49.770;9.250;2022-10-31T02:03:16;10.23;;;5.30;;
67272;SDS011;54190;49.770;9.250;2022-10-31T02:05:43;9.80;;;5.30;;
67272;SDS011;54190;49.770;9.250;2022-10-31T02:10:56;12.63;;;5.80;;
67272;SDS011;54190;49.770;9.250;2022-10-31T02:13:23;12.00;;;5.70;;
67272;SDS011;54190;49.770;9.250;2022-10-31T02:15:51;8.93;;;4.40;;
67272;SDS011;54190;49.770;9.250;2022-10-31T02:18:19;8.23;;;5.47;;
67272;SDS011;54190;49.770;9.250;2022-10-31T02:20:51;8.03;;;4.80;;
67272;SDS011;54190;49.770;9.250;2022-10-31T02:29:24;12.40;;;4.97;;
67272;SDS011;54190;49.770;9.250;2022-10-31T02:40:15;7.63;;;4.27;;
67272;SDS011;54190;49.770;9.250;2022-10-31T02:43:14;4.33;;;3.50;;
67272;SDS011;54190;49.770;9.250;2022-10-31T02:48:37;5.90;;;3.90;;
67272;SDS011;54190;49.770;9.250;2022-10-31T02:51:05;5.27;;;3.70;;
67272;SDS011;54190;49.770;9.250;2022-10-31T02:53:35;6.40;;;3.30;;
67272;SDS011;54190;49.770;9.250;2022-10-31T02:56:04;6.13;;;3.90;;
67272;SDS011;54190;49.770;9.250;2022-10-31T02:58:36;9.70;;;3.67;;
67272;SDS011;54190;49.770;9.250;2022-10-31T03:01:07;7.87;;;3.57;;
67272;SDS011;54190;49.770;9.250;2022-10-31T03:06:17;4.87;;;3.47;;
67272;SDS011;54190;49.770;9.250;2022-10-31T03:11:56;4.17;;;3.40;;
67272;SDS011;54190;49.770;9.250;2022-10-31T03:14:43;5.03;;;3.77;;
67272;SDS011;54190;49.770;9.250;2022-10-31T03:17:42;5.17;;;3.90;;
67272;SDS011;54190;49.770;9.250;2022-10-31T03:20:15;11.17;;;3.70;;
67272;SDS011;54190;49.770;9.250;2022-10-31T03:22:47;5.00;;;3.90;;
67272;SDS011;54190;49.770;9.250;2022-10-31T03:25:13;7.93;;;3.57;;
67272;SDS011;54190;49.770;9.250;2022-10-31T03:27:39;8.70;;;3.77;;
67272;SDS011;54190;49.770;9.250;2022-10-31T03:30:08;4.57;;;3.47;;
67272;SDS011;54190;49.770;9.250;2022-10-31T03:32:54;4.00;;;3.47;;
67272;SDS011;54190;49.770;9.250;2022-10-31T03:35:22;4.00;;;3.23;;
67272;SDS011;54190;49.770;9.250;2022-10-31T03:37:51;4.00;;;3.30;;
67272;SDS011;54190;49.770;9.250;2022-10-31T03:40:20;4.40;;;3.47;;
67272;SDS011;54190;49.770;9.250;2022-10-31T03:42:51;4.43;;;3.70;;
67272;SDS011;54190;49.770;9.250;2022-10-31T03:45:22;6.83;;;3.70;;
67272;SDS011;54190;49.770;9.250;2022-10-31T03:47:51;5.00;;;3.80;;
67272;SDS011;54190;49.770;9.250;2022-10-31T03:50:18;4.03;;;3.10;;
67272;SDS011;54190;49.770;9.250;2022-10-31T03:53:30;11.23;;;3.77;;
67272;SDS011;54190;49.770;9.250;2022-10-31T03:55:46;5.33;;;3.07;;
67272;SDS011;54190;49.770;9.250;2022-10-31T04:00:52;9.80;;;5.17;;
67272;SDS011;54190;49.770;9.250;2022-10-31T04:03:25;8.37;;;6.00;;
67272;SDS011;54190;49.770;9.250;2022-10-31T04:05:57;8.63;;;6.20;;
67272;SDS011;54190;49.770;9.250;2022-10-31T04:08:28;7.50;;;5.50;;
67272;SDS011;54190;49.770;9.250;2022-10-31T04:10:56;10.10;;;3.83;;
67272;SDS011;54190;49.770;9.250;2022-10-31T04:13:26;6.27;;;3.90;;
67272;SDS011;54190;49.770;9.250;2022-10-31T04:16:03;4.13;;;3.00;;
67272;SDS011;54190;49.770;9.250;2022-10-31T04:18:31;5.27;;;3.10;;
67272;SDS011;54190;49.770;9.250;2022-10-31T04:21:04;4.57;;;2.70;;
67272;SDS011;54190;49.770;9.250;2022-10-31T04:23:32;6.73;;;2.67;;
67272;SDS011;54190;49.770;9.250;2022-10-31T04:26:02;3.83;;;2.90;;
67272;SDS011;54190;49.770;9.250;2022-10-31T04:28:28;5.50;;;2.80;;
67272;SDS011;54190;49.770;9.250;2022-10-31T04:30:54;3.90;;;2.80;;
67272;SDS011;54190;49.770;9.250;2022-10-31T04:33:21;5.17;;;3.20;;
67272;SDS011;54190;49.770;9.250;2022-10-31T04:35:46;4.23;;;3.00;;
67272;SDS011;54190;49.770;9.250;2022-10-31T04:38:12;4.67;;;2.60;;
67272;SDS011;54190;49.770;9.250;2022-10-31T04:40:39;4.13;;;2.70;;
67272;SDS011;54190;49.770;9.250;2022-10-31T04:43:30;5.33;;;2.80;;
67272;SDS011;54190;49.770;9.250;2022-10-31T04:45:58;4.20;;;2.80;;
67272;SDS011;54190;49.770;9.250;2022-10-31T04:48:24;12.60;;;3.73;;
67272;SDS011;54190;49.770;9.250;2022-10-31T04:50:50;5.57;;;3.03;;
67272;SDS011;54190;49.770;9.250;2022-10-31T04:53:16;6.53;;;3.47;;
67272;SDS011;54190;49.770;9.250;2022-10-31T04:56:00;8.20;;;3.70;;
67272;SDS011;54190;49.770;9.250;2022-10-31T04:58:34;6.53;;;3.70;;
67272;SDS011;54190;49.770;9.250;2022-10-31T05:00:59;8.60;;;3.53;;
67272;SDS011;54190;49.770;9.250;2022-10-31T05:03:25;6.33;;;3.33;;
67272;SDS011;54190;49.770;9.250;2022-10-31T05:05:51;6.43;;;3.63;;
67272;SDS011;54190;49.770;9.250;2022-10-31T05:08:16;8.87;;;4.20;;
67272;SDS011;54190;49.770;9.250;2022-10-31T05:10:42;9.43;;;3.87;;
67272;SDS011;54190;49.770;9.250;2022-10-31T05:13:08;4.93;;;3.20;;
67272;SDS011;54190;49.770;9.250;2022-10-31T05:15:52;4.67;;;3.17;;
67272;SDS011;54190;49.770;9.250;2022-10-31T05:18:21;4.73;;;2.93;;
67272;SDS011;54190;49.770;9.250;2022-10-31T05:21:05;4.20;;;3.00;;
67272;SDS011;54190;49.770;9.250;2022-10-31T05:23:35;6.63;;;3.83;;
67272;SDS011;54190;49.770;9.250;2022-10-31T05:26:01;4.73;;;3.50;;
67272;SDS011;54190;49.770;9.250;2022-10-31T05:28:27;4.70;;;3.63;;
67272;SDS011;54190;49.770;9.250;2022-10-31T05:30:53;4.77;;;3.60;;
67272;SDS011;54190;49.770;9.250;2022-10-31T05:33:20;37.57;;;5.07;;
67272;SDS011;54190;49.770;9.250;2022-10-31T05:36:11;5.80;;;3.43;;
67272;SDS011;54190;49.770;9.250;2022-10-31T05:38:44;5.13;;;3.77;;
67272;SDS011;54190;49.770;9.250;2022-10-31T05:41:22;13.87;;;4.30;;
67272;SDS011;54190;49.770;9.250;2022-10-31T05:43:48;7.17;;;4.33;;
67272;SDS011;54190;49.770;9.250;2022-10-31T05:46:17;6.63;;;4.03;;
67272;SDS011;54190;49.770;9.250;2022-10-31T05:49:01;4.63;;;3.50;;
67272;SDS011;54190;49.770;9.250;2022-10-31T05:51:46;7.23;;;4.00;;
67272;SDS011;54190;49.770;9.250;2022-10-31T05:54:12;10.27;;;3.90;;
67272;SDS011;54190;49.770;9.250;2022-10-31T05:56:39;7.83;;;3.90;;
67272;SDS011;54190;49.770;9.250;2022-10-31T05:59:04;20.50;;;4.30;;
67272;SDS011;54190;49.770;9.250;2022-10-31T06:01:30;96.27;;;7.53;;
67272;SDS011;54190;49.770;9.250;2022-10-31T06:04:02;11.47;;;3.97;;
67272;SDS011;54190;49.770;9.250;2022-10-31T06:06:28;9.50;;;4.50;;
67272;SDS011;54190;49.770;9.250;2022-10-31T06:08:54;24.40;;;4.93;;
67272;SDS011;54190;49.770;9.250;2022-10-31T06:11:21;5.93;;;3.40;;
67272;SDS011;54190;49.770;9.250;2022-10-31T06:14:02;14.50;;;4.30;;
67272;SDS011;54190;49.770;9.250;2022-10-31T06:16:34;186.63;;;11.53;;
67272;SDS011;54190;49.770;9.250;2022-10-31T06:19:17;56.93;;;6.10;;
67272;SDS011;54190;49.770;9.250;2022-10-31T06:21:42;14.93;;;4.67;;
67272;SDS011;54190;49.770;9.250;2022-10-31T06:24:08;5.93;;;3.70;;
67272;SDS011;54190;49.770;9.250;2022-10-31T06:26:54;22.00;;;4.87;;
67272;SDS011;54190;49.770;9.250;2022-10-31T06:29:20;174.20;;;10.33;;
67272;SDS011;54190;49.770;9.250;2022-10-31T06:32:18;33.83;;;4.07;;
67272;SDS011;54190;49.770;9.250;2022-10-31T06:34:44;79.97;;;6.87;;
67272;SDS011;54190;49.770;9.250;2022-10-31T06:37:13;22.77;;;4.70;;
67272;SDS011;54190;49.770;9.250;2022-10-31T06:39:42;84.77;;;6.90;;
67272;SDS011;54190;49.770;9.250;2022-10-31T06:42:10;182.43;;;10.57;;
67272;SDS011;54190;49.770;9.250;2022-10-31T06:44:36;52.00;;;5.47;;
67272;SDS011;54190;49.770;9.250;2022-10-31T06:47:24;149.83;;;8.93;;
67272;SDS011;54190;49.770;9.250;2022-10-31T06:50:04;70.67;;;6.67;;
67272;SDS011;54190;49.770;9.250;2022-10-31T06:52:30;17.23;;;4.23;;
67272;SDS011;54190;49.770;9.250;2022-10-31T06:54:55;21.80;;;4.27;;
67272;SDS011;54190;49.770;9.250;2022-10-31T06:57:22;42.30;;;19.13;;
67272;SDS011;54190;49.770;9.250;2022-10-31T06:59:48;197.73;;;13.53;;
67272;SDS011;54190;49.770;9.250;2022-10-31T07:02:20;59.33;;;11.90;;
67272;SDS011;54190;49.770;9.250;2022-10-31T07:04:47;167.67;;;12.13;;
67272;SDS011;54190;49.770;9.250;2022-10-31T07:07:14;77.80;;;8.50;;
67272;SDS011;54190;49.770;9.250;2022-10-31T07:09:40;87.77;;;9.67;;
67272;SDS011;54190;49.770;9.250;2022-10-31T07:12:08;58.93;;;10.63;;
67272;SDS011;54190;49.770;9.250;2022-10-31T07:14:37;131.70;;;9.03;;
67272;SDS011;54190;49.770;9.250;2022-10-31T07:17:03;23.00;;;4.57;;
67272;SDS011;54190;49.770;9.250;2022-10-31T07:19:35;108.47;;;9.70;;
67272;SDS011;54190;49.770;9.250;2022-10-31T07:22:02;37.30;;;11.20;;
67272;SDS011;54190;49.770;9.250;2022-10-31T07:24:28;51.00;;;13.23;;
67272;SDS011;54190;49.770;9.250;2022-10-31T07:27:21;12.70;;;5.40;;
67272;SDS011;54190;49.770;9.250;2022-10-31T07:29:47;44.60;;;7.20;;
67272;SDS011;54190;49.770;9.250;2022-10-31T07:32:14;76.03;;;6.87;;
67272;SDS011;54190;49.770;9.250;2022-10-31T07:34:45;56.67;;;6.10;;
67272;SDS011;54190;49.770;9.250;2022-10-31T07:37:18;29.97;;;5.27;;
67272;SDS011;54190;49.770;9.250;2022-10-31T07:39:43;18.40;;;4.27;;
67272;SDS011;54190;49.770;9.250;2022-10-31T07:42:09;23.60;;;4.73;;
67272;SDS011;54190;49.770;9.250;2022-10-31T07:44:36;6.63;;;3.87;;
67272;SDS011;54190;49.770;9.250;2022-10-31T07:47:22;11.63;;;7.00;;
67272;SDS011;54190;49.770;9.250;2022-10-31T07:50:08;106.10;;;10.93;;
67272;SDS011;54190;49.770;9.250;2022-10-31T07:53:01;84.97;;;10.23;;
67272;SDS011;54190;49.770;9.250;2022-10-31T07:55:40;77.10;;;10.73;;
67272;SDS011;54190;49.770;9.250;2022-10-31T07:58:08;96.53;;;7.23;;
67272;SDS011;54190;49.770;9.250;2022-10-31T08:00:37;138.77;;;13.97;;
67272;SDS011;54190;49.770;9.250;2022-10-31T08:03:05;48.13;;;9.17;;
67272;SDS011;54190;49.770;9.250;2022-10-31T08:05:51;39.07;;;8.40;;
67272;SDS011;54190;49.770;9.250;2022-10-31T08:08:42;74.33;;;7.50;;
67272;SDS011;54190;49.770;9.250;2022-10-31T08:11:08;25.07;;;5.63;;
67272;SDS011;54190;49.770;9.250;2022-10-31T08:13:34;67.80;;;7.10;;
67272;SDS011;54190;49.770;9.250;2022-10-31T08:16:00;92.77;;;8.40;;
67272;SDS011;54190;49.770;9.250;2022-10-31T08:18:31;83.30;;;9.80;;
67272;SDS011;54190;49.770;9.250;2022-10-31T08:20:57;25.73;;;6.57;;
67272;SDS011;54190;49.770;9.250;2022-10-31T08:23:23;103.60;;;10.03;;
67272;SDS011;54190;49.770;9.250;2022-10-31T08:25:52;90.37;;;11.50;;
67272;SDS011;54190;49.770;9.250;2022-10-31T08:28:19;52.93;;;7.70;;
67272;SDS011;54190;49.770;9.250;2022-10-31T08:30:48;104.63;;;9.87;;
67272;SDS011;54190;49.770;9.250;2022-10-31T08:33:32;34.80;;;6.70;;
67272;SDS011;54190;49.770;9.250;2022-10-31T08:36:15;15.67;;;7.33;;
67272;SDS011;54190;49.770;9.250;2022-10-31T08:38:52;99.47;;;9.00;;
67272;SDS011;54190;49.770;9.250;2022-10-31T08:41:18;40.60;;;7.40;;
67272;SDS011;54190;49.770;9.250;2022-10-31T08:43:44;22.53;;;6.60;;
67272;SDS011;54190;49.770;9.250;2022-10-31T08:46:11;19.03;;;6.47;;
67272;SDS011;54190;49.770;9.250;2022-10-31T08:48:39;73.60;;;9.20;;
67272;SDS011;54190;49.770;9.250;2022-10-31T08:51:05;70.57;;;10.27;;
67272;SDS011;54190;49.770;9.250;2022-10-31T08:53:31;13.23;;;6.70;;
67272;SDS011;54190;49.770;9.250;2022-10-31T08:56:15;14.73;;;7.00;;
67272;SDS011;54190;49.770;9.250;2022-10-31T08:58:41;36.23;;;8.80;;
67272;SDS011;54190;49.770;9.250;2022-10-31T09:01:08;8.17;;;6.40;;
67272;SDS011;54190;49.770;9.250;2022-10-31T09:03:34;31.97;;;7.10;;
67272;SDS011;54190;49.770;9.250;2022-10-31T09:06:01;112.63;;;11.37;;
67272;SDS011;54190;49.770;9.250;2022-10-31T09:08:31;30.30;;;7.73;;
67272;SDS011;54190;49.770;9.250;2022-10-31T09:10:59;131.17;;;12.33;;
67272;SDS011;54190;49.770;9.250;2022-10-31T09:13:44;81.47;;;9.43;;
67272;SDS011;54190;49.770;9.250;2022-10-31T09:16:29;90.87;;;9.27;;
67272;SDS011;54190;49.770;9.250;2022-10-31T09:18:55;12.10;;;6.40;;
67272;SDS011;54190;49.770;9.250;2022-10-31T09:21:21;198.93;;;12.87;;
67272;SDS011;54190;49.770;9.250;2022-10-31T09:23:47;78.70;;;8.20;;
67272;SDS011;54190;49.770;9.250;2022-10-31T09:26:13;16.90;;;6.97;;
67272;SDS011;54190;49.770;9.250;2022-10-31T09:28:42;21.03;;;7.60;;
67272;SDS011;54190;49.770;9.250;2022-10-31T09:31:15;9.90;;;6.30;;
67272;SDS011;54190;49.770;9.250;2022-10-31T09:33:52;12.00;;;6.13;;
67272;SDS011;54190;49.770;9.250;2022-10-31T09:36:43;20.80;;;6.17;;
67272;SDS011;54190;49.770;9.250;2022-10-31T09:39:17;32.90;;;7.90;;
67272;SDS011;54190;49.770;9.250;2022-10-31T09:47:36;9.77;;;6.73;;
67272;SDS011;54190;49.770;9.250;2022-10-31T09:50:52;12.00;;;8.00;;
67272;SDS011;54190;49.770;9.250;2022-10-31T09:53:44;10.90;;;8.17;;
67272;SDS011;54190;49.770;9.250;2022-10-31T09:56:19;10.87;;;7.97;;
67272;SDS011;54190;49.770;9.250;2022-10-31T09:58:55;11.23;;;7.90;;
67272;SDS011;54190;49.770;9.250;2022-10-31T10:07:16;13.17;;;9.80;;
67272;SDS011;54190;49.770;9.250;2022-10-31T10:10:12;11.83;;;8.57;;
67272;SDS011;54190;49.770;9.250;2022-10-31T10:16:03;13.00;;;8.70;;
67272;SDS011;54190;49.770;9.250;2022-10-31T10:21:35;10.93;;;7.50;;
67272;SDS011;54190;49.770;9.250;2022-10-31T10:25:03;11.20;;;8.20;;
67272;SDS011;54190;49.770;9.250;2022-10-31T10:29:57;9.70;;;7.03;;
67272;SDS011;54190;49.770;9.250;2022-10-31T10:32:37;9.87;;;7.30;;
67272;SDS011;54190;49.770;9.250;2022-10-31T10:35:13;12.47;;;7.20;;
67272;SDS011;54190;49.770;9.250;2022-10-31T10:37:50;13.90;;;6.80;;
67272;SDS011;54190;49.770;9.250;2022-10-31T10:40:24;18.97;;;7.10;;
67272;SDS011;54190;49.770;9.250;2022-10-31T10:45:46;10.40;;;6.80;;
67272;SDS011;54190;49.770;9.250;2022-10-31T10:48:42;9.13;;;6.13;;
67272;SDS011;54190;49.770;9.250;2022-10-31T10:51:15;12.23;;;7.33;;
67272;SDS011;54190;49.770;9.250;2022-10-31T10:54:06;10.70;;;7.13;;
67272;SDS011;54190;49.770;9.250;2022-10-31T11:00:18;10.50;;;6.53;;
67272;SDS011;54190;49.770;9.250;2022-10-31T11:02:50;12.80;;;6.90;;
67272;SDS011;54190;49.770;9.250;2022-10-31T11:05:33;11.37;;;6.90;;
67272;SDS011;54190;49.770;9.250;2022-10-31T11:08:04;8.57;;;6.60;;
67272;SDS011;54190;49.770;9.250;2022-10-31T11:10:32;10.37;;;6.60;;
67272;SDS011;54190;49.770;9.250;2022-10-31T11:15:30;14.17;;;6.87;;
67272;SDS011;54190;49.770;9.250;2022-10-31T11:18:05;9.87;;;6.57;;
67272;SDS011;54190;49.770;9.250;2022-10-31T11:20:51;10.10;;;6.67;;
67272;SDS011;54190;49.770;9.250;2022-10-31T11:23:31;8.97;;;6.60;;
67272;SDS011;54190;49.770;9.250;2022-10-31T11:26:05;12.87;;;7.53;;
67272;SDS011;54190;49.770;9.250;2022-10-31T11:29:30;8.10;;;6.47;;
67272;SDS011;54190;49.770;9.250;2022-10-31T11:31:40;12.03;;;6.60;;
67272;SDS011;54190;49.770;9.250;2022-10-31T11:36:55;11.60;;;7.20;;
67272;SDS011;54190;49.770;9.250;2022-10-31T11:39:52;8.90;;;7.00;;
67272;SDS011;54190;49.770;9.250;2022-10-31T11:42:24;12.30;;;6.63;;
67272;SDS011;54190;49.770;9.250;2022-10-31T11:44:55;11.13;;;7.20;;
67272;SDS011;54190;49.770;9.250;2022-10-31T11:47:28;9.17;;;6.93;;
67272;SDS011;54190;49.770;9.250;2022-10-31T11:49:59;13.03;;;7.00;;
67272;SDS011;54190;49.770;9.250;2022-10-31T11:52:37;10.80;;;6.77;;
67272;SDS011;54190;49.770;9.250;2022-10-31T11:55:15;14.10;;;6.50;;
67272;SDS011;54190;49.770;9.250;2022-10-31T11:57:56;14.90;;;6.37;;
67272;SDS011;54190;49.770;9.250;2022-10-31T12:00:25;17.80;;;6.70;;
67272;SDS011;54190;49.770;9.250;2022-10-31T12:06:24;8.33;;;6.60;;
67272;SDS011;54190;49.770;9.250;2022-10-31T12:08:57;11.20;;;6.87;;
67272;SDS011;54190;49.770;9.250;2022-10-31T12:14:01;21.40;;;12.70;;
67272;SDS011;54190;49.770;9.250;2022-10-31T12:36:08;16.83;;;11.10;;
67272;SDS011;54190;49.770;9.250;2022-10-31T12:41:41;19.17;;;8.83;;
67272;SDS011;54190;49.770;9.250;2022-10-31T12:49:58;15.17;;;10.07;;
67272;SDS011;54190;49.770;9.250;2022-10-31T12:55:41;13.90;;;9.63;;
67272;SDS011;54190;49.770;9.250;2022-10-31T12:58:45;12.20;;;9.17;;
67272;SDS011;54190;49.770;9.250;2022-10-31T13:01:34;13.80;;;10.43;;
67272;SDS011;54190;49.770;9.250;2022-10-31T13:04:19;20.27;;;10.03;;
67272;SDS011;54190;49.770;9.250;2022-10-31T13:07:15;14.17;;;9.60;;
67272;SDS011;54190;49.770;9.250;2022-10-31T13:09:56;20.10;;;9.13;;
67272;SDS011;54190;49.770;9.250;2022-10-31T13:12:25;13.03;;;9.80;;
67272;SDS011;54190;49.770;9.250;2022-10-31T13:14:58;16.73;;;11.20;;
67272;SDS011;54190;49.770;9.250;2022-10-31T13:18:04;18.67;;;10.13;;
67272;SDS011;54190;49.770;9.250;2022-10-31T13:20:41;17.57;;;10.17;;
67272;SDS011;54190;49.770;9.250;2022-10-31T13:23:14;14.73;;;9.70;;
67272;SDS011;54190;49.770;9.250;2022-10-31T13:26:15;17.60;;;10.57;;
67272;SDS011;54190;49.770;9.250;2022-10-31T13:29:13;14.63;;;9.73;;
67272;SDS011;54190;49.770;9.250;2022-10-31T13:31:51;18.33;;;10.43;;
67272;SDS011;54190;49.770;9.250;2022-10-31T13:37:10;11.83;;;9.30;;
67272;SDS011;54190;49.770;9.250;2022-10-31T13:42:59;16.10;;;9.80;;
67272;SDS011;54190;49.770;9.250;2022-10-31T13:45:47;19.13;;;11.83;;
67272;SDS011;54190;49.770;9.250;2022-10-31T13:50:58;15.03;;;9.73;;
67272;SDS011;54190;49.770;9.250;2022-10-31T13:56:25;14.33;;;10.27;;
67272;SDS011;54190;49.770;9.250;2022-10-31T13:59:12;18.47;;;10.97;;
67272;SDS011;54190;49.770;9.250;2022-10-31T14:01:50;14.90;;;10.07;;
67272;SDS011;54190;49.770;9.250;2022-10-31T14:04:21;19.93;;;10.90;;
67272;SDS011;54190;49.770;9.250;2022-10-31T14:06:52;15.30;;;10.10;;
67272;SDS011;54190;49.770;9.250;2022-10-31T14:12:28;12.70;;;9.80;;
67272;SDS011;54190;49.770;9.250;2022-10-31T14:15:20;14.27;;;10.50;;
67272;SDS011;54190;49.770;9.250;2022-10-31T14:17:56;15.80;;;11.40;;
67272;SDS011;54190;49.770;9.250;2022-10-31T14:31:35;18.37;;;10.87;;
67272;SDS011;54190;49.770;9.250;2022-10-31T14:34:23;15.80;;;9.80;;
67272;SDS011;54190;49.770;9.250;2022-10-31T14:48:24;16.73;;;12.73;;
67272;SDS011;54190;49.770;9.250;2022-10-31T14:50:57;15.17;;;11.17;;
67272;SDS011;54190;49.770;9.250;2022-10-31T14:53:42;15.40;;;10.97;;
67272;SDS011;54190;49.770;9.250;2022-10-31T14:56:19;15.90;;;11.30;;
67272;SDS011;54190;49.770;9.250;2022-10-31T14:58:54;16.47;;;11.50;;
67272;SDS011;54190;49.770;9.250;2022-10-31T15:01:28;19.03;;;11.30;;
67272;SDS011;54190;49.770;9.250;2022-10-31T15:04:14;17.50;;;11.23;;
67272;SDS011;54190;49.770;9.250;2022-10-31T15:06:48;17.40;;;11.17;;
67272;SDS011;54190;49.770;9.250;2022-10-31T15:09:31;14.97;;;11.87;;
67272;SDS011;54190;49.770;9.250;2022-10-31T15:12:01;22.73;;;12.50;;
67272;SDS011;54190;49.770;9.250;2022-10-31T15:14:49;23.97;;;13.83;;
67272;SDS011;54190;49.770;9.250;2022-10-31T15:17:15;22.43;;;12.90;;
67272;SDS011;54190;49.770;9.250;2022-10-31T15:19:41;19.70;;;11.53;;
67272;SDS011;54190;49.770;9.250;2022-10-31T15:22:13;19.83;;;11.63;;
67272;SDS011;54190;49.770;9.250;2022-10-31T15:24:42;19.80;;;12.97;;
67272;SDS011;54190;49.770;9.250;2022-10-31T15:27:17;26.30;;;13.23;;
67272;SDS011;54190;49.770;9.250;2022-10-31T15:32:58;16.90;;;13.10;;
67272;SDS011;54190;49.770;9.250;2022-10-31T15:54:15;20.73;;;13.77;;
67272;SDS011;54190;49.770;9.250;2022-10-31T17:22:19;111.67;;;62.30;;
67272;SDS011;54190;49.770;9.250;2022-10-31T17:51:54;25.33;;;18.43;;
67272;SDS011;54190;49.770;9.250;2022-10-31T17:54:44;41.10;;;25.50;;
67272;SDS011;54190;49.770;9.250;2022-10-31T18:00:18;26.10;;;16.97;;
67272;SDS011;54190;49.770;9.250;2022-10-31T18:13:17;28.30;;;19.33;;
67272;SDS011;54190;49.770;9.250;2022-10-31T18:15:43;32.27;;;21.10;;
67272;SDS011;54190;49.770;9.250;2022-10-31T18:18:26;34.00;;;23.37;;
67272;SDS011;54190;49.770;9.250;2022-10-31T18:21:13;27.63;;;17.30;;
67272;SDS011;54190;49.770;9.250;2022-10-31T18:31:25;27.93;;;17.27;;
67272;SDS011;54190;49.770;9.250;2022-10-31T18:34:40;24.13;;;16.33;;
67272;SDS011;54190;49.770;9.250;2022-10-31T18:37:06;25.30;;;16.60;;
67272;SDS011;54190;49.770;9.250;2022-10-31T18:39:31;23.10;;;16.37;;
67272;SDS011;54190;49.770;9.250;2022-10-31T18:41:57;25.63;;;18.10;;
67272;SDS011;54190;49.770;9.250;2022-10-31T18:44:23;25.00;;;17.53;;
67272;SDS011;54190;49.770;9.250;2022-10-31T18:46:49;28.30;;;18.60;;
67272;SDS011;54190;49.770;9.250;2022-10-31T18:49:14;27.57;;;17.87;;
67272;SDS011;54190;49.770;9.250;2022-10-31T18:51:46;29.17;;;18.43;;
67272;SDS011;54190;49.770;9.250;2022-10-31T18:54:13;21.90;;;16.77;;
67272;SDS011;54190;49.770;9.250;2022-10-31T18:56:38;24.63;;;17.10;;
67272;SDS011;54190;49.770;9.250;2022-10-31T18:59:04;21.27;;;15.60;;
67272;SDS011;54190;49.770;9.250;2022-10-31T19:01:30;25.80;;;15.20;;
67272;SDS011;54190;49.770;9.250;2022-10-31T19:03:56;22.43;;;16.33;;
67272;SDS011;54190;49.770;9.250;2022-10-31T19:06:24;20.17;;;15.60;;
67272;SDS011;54190;49.770;9.250;2022-10-31T19:08:55;20.43;;;15.30;;
67272;SDS011;54190;49.770;9.250;2022-10-31T19:11:22;24.13;;;15.53;;
67272;SDS011;54190;49.770;9.250;2022-10-31T19:13:48;21.67;;;16.10;;
67272;SDS011;54190;49.770;9.250;2022-10-31T19:16:14;20.67;;;16.67;;
67272;SDS011;54190;49.770;9.250;2022-10-31T19:18:41;24.30;;;17.67;;
67272;SDS011;54190;49.770;9.250;2022-10-31T19:21:11;22.33;;;17.97;;
67272;SDS011;54190;49.770;9.250;2022-10-31T19:23:38;24.87;;;18.90;;
67272;SDS011;54190;49.770;9.250;2022-10-31T19:26:04;24.80;;;17.87;;
67272;SDS011;54190;49.770;9.250;2022-10-31T19:28:34;22.40;;;17.00;;
67272;SDS011;54190;49.770;9.250;2022-10-31T19:31:01;20.27;;;16.93;;
67272;SDS011;54190;49.770;9.250;2022-10-31T19:33:28;23.73;;;15.63;;
67272;SDS011;54190;49.770;9.250;2022-10-31T19:36:02;22.20;;;15.70;;
67272;SDS011;54190;49.770;9.250;2022-10-31T19:38:32;24.20;;;19.57;;
67272;SDS011;54190;49.770;9.250;2022-10-31T19:40:59;30.03;;;17.70;;
67272;SDS011;54190;49.770;9.250;2022-10-31T19:43:27;21.80;;;16.47;;
67272;SDS011;54190;49.770;9.250;2022-10-31T19:45:57;24.63;;;18.60;;
67272;SDS011;54190;49.770;9.250;2022-10-31T19:48:25;23.70;;;17.17;;
67272;SDS011;54190;49.770;9.250;2022-10-31T19:50:51;24.30;;;16.70;;
67272;SDS011;54190;49.770;9.250;2022-10-31T19:53:18;25.03;;;17.17;;
67272;SDS011;54190;49.770;9.250;2022-10-31T19:55:44;26.17;;;17.60;;
67272;SDS011;54190;49.770;9.250;2022-10-31T19:58:11;21.57;;;16.20;;
67272;SDS011;54190;49.770;9.250;2022-10-31T20:00:38;26.23;;;17.40;;
67272;SDS011;54190;49.770;9.250;2022-10-31T20:03:04;23.97;;;16.83;;